sensor_id;sensor_type;location;lat;lon;timestamp;P1;durP1;ratioP1;P2;durP2;ratioP2
71975;SDS011;60680;52.182;5.398;2022-08-21T00:02:17;4.03;;;1.80;;
71975;SDS011;60680;52.182;5.398;2022-08-21T00:04:46;5.30;;;1.92;;
71975;SDS011;60680;52.182;5.398;2022-08-21T00:07:22;5.03;;;2.00;;
71975;SDS011;60680;52.182;5.398;2022-08-21T00:09:50;4.90;;;2.05;;
71975;SDS011;60680;52.182;5.398;2022-08-21T00:12:19;4.57;;;1.90;;
71975;SDS011;60680;52.182;5.398;2022-08-21T00:14:46;4.00;;;1.80;;
71975;SDS011;60680;52.182;5.398;2022-08-21T00:17:13;4.75;;;2.08;;
71975;SDS011;60680;52.182;5.398;2022-08-21T00:19:40;3.97;;;1.73;;
71975;SDS011;60680;52.182;5.398;2022-08-21T00:22:07;6.88;;;1.73;;
71975;SDS011;60680;52.182;5.398;2022-08-21T00:24:36;4.82;;;2.13;;
71975;SDS011;60680;52.182;5.398;2022-08-21T00:27:03;6.97;;;2.00;;
71975;SDS011;60680;52.182;5.398;2022-08-21T00:29:31;5.05;;;2.13;;
71975;SDS011;60680;52.182;5.398;2022-08-21T00:31:58;4.55;;;1.80;;
71975;SDS011;60680;52.182;5.398;2022-08-21T00:34:25;4.70;;;1.90;;
71975;SDS011;60680;52.182;5.398;2022-08-21T00:36:52;4.25;;;1.45;;
71975;SDS011;60680;52.182;5.398;2022-08-21T00:39:18;3.57;;;1.60;;
71975;SDS011;60680;52.182;5.398;2022-08-21T00:41:45;4.88;;;1.60;;
71975;SDS011;60680;52.182;5.398;2022-08-21T00:44:13;3.88;;;1.65;;
71975;SDS011;60680;52.182;5.398;2022-08-21T00:46:42;3.55;;;1.17;;
71975;SDS011;60680;52.182;5.398;2022-08-21T00:49:09;5.70;;;1.63;;
71975;SDS011;60680;52.182;5.398;2022-08-21T00:51:49;4.13;;;1.80;;
71975;SDS011;60680;52.182;5.398;2022-08-21T00:54:18;4.15;;;1.50;;
71975;SDS011;60680;52.182;5.398;2022-08-21T00:56:48;3.72;;;1.60;;
71975;SDS011;60680;52.182;5.398;2022-08-21T00:59:18;4.47;;;1.80;;
71975;SDS011;60680;52.182;5.398;2022-08-21T01:01:47;4.57;;;1.98;;
71975;SDS011;60680;52.182;5.398;2022-08-21T01:04:15;5.87;;;2.10;;
71975;SDS011;60680;52.182;5.398;2022-08-21T01:06:43;4.47;;;1.88;;
71975;SDS011;60680;52.182;5.398;2022-08-21T01:09:11;6.20;;;1.85;;
71975;SDS011;60680;52.182;5.398;2022-08-21T01:11:39;4.70;;;1.73;;
71975;SDS011;60680;52.182;5.398;2022-08-21T01:14:09;8.02;;;1.98;;
71975;SDS011;60680;52.182;5.398;2022-08-21T01:16:39;5.90;;;2.00;;
71975;SDS011;60680;52.182;5.398;2022-08-21T01:19:09;7.13;;;1.88;;
71975;SDS011;60680;52.182;5.398;2022-08-21T01:21:37;4.68;;;1.88;;
71975;SDS011;60680;52.182;5.398;2022-08-21T01:24:04;4.57;;;1.90;;
71975;SDS011;60680;52.182;5.398;2022-08-21T01:26:32;3.60;;;1.48;;
71975;SDS011;60680;52.182;5.398;2022-08-21T01:29:05;4.53;;;1.70;;
71975;SDS011;60680;52.182;5.398;2022-08-21T01:31:53;3.53;;;1.52;;
71975;SDS011;60680;52.182;5.398;2022-08-21T01:34:20;3.83;;;2.00;;
71975;SDS011;60680;52.182;5.398;2022-08-21T01:36:47;3.97;;;1.60;;
71975;SDS011;60680;52.182;5.398;2022-08-21T01:39:14;4.25;;;2.22;;
71975;SDS011;60680;52.182;5.398;2022-08-21T01:41:44;6.33;;;1.70;;
71975;SDS011;60680;52.182;5.398;2022-08-21T01:44:11;4.55;;;1.75;;
71975;SDS011;60680;52.182;5.398;2022-08-21T01:46:37;4.25;;;1.77;;
71975;SDS011;60680;52.182;5.398;2022-08-21T01:49:04;5.97;;;1.65;;
71975;SDS011;60680;52.182;5.398;2022-08-21T01:51:31;5.22;;;2.08;;
71975;SDS011;60680;52.182;5.398;2022-08-21T01:53:58;3.67;;;1.50;;
71975;SDS011;60680;52.182;5.398;2022-08-21T01:56:25;3.50;;;1.90;;
71975;SDS011;60680;52.182;5.398;2022-08-21T01:58:53;2.95;;;1.75;;
71975;SDS011;60680;52.182;5.398;2022-08-21T02:01:20;3.75;;;1.83;;
71975;SDS011;60680;52.182;5.398;2022-08-21T02:03:47;6.40;;;2.03;;
71975;SDS011;60680;52.182;5.398;2022-08-21T02:06:14;7.03;;;1.80;;
71975;SDS011;60680;52.182;5.398;2022-08-21T02:08:43;2.67;;;1.60;;
71975;SDS011;60680;52.182;5.398;2022-08-21T02:11:11;3.03;;;1.58;;
71975;SDS011;60680;52.182;5.398;2022-08-21T02:13:37;4.53;;;1.70;;
71975;SDS011;60680;52.182;5.398;2022-08-21T02:16:04;3.70;;;1.98;;
71975;SDS011;60680;52.182;5.398;2022-08-21T02:18:31;4.33;;;1.60;;
71975;SDS011;60680;52.182;5.398;2022-08-21T02:20:58;5.53;;;1.73;;
71975;SDS011;60680;52.182;5.398;2022-08-21T02:23:24;5.30;;;2.20;;
71975;SDS011;60680;52.182;5.398;2022-08-21T02:26:03;4.60;;;2.50;;
71975;SDS011;60680;52.182;5.398;2022-08-21T02:28:32;5.72;;;1.98;;
71975;SDS011;60680;52.182;5.398;2022-08-21T02:30:59;4.57;;;2.27;;
71975;SDS011;60680;52.182;5.398;2022-08-21T02:33:27;5.18;;;1.90;;
71975;SDS011;60680;52.182;5.398;2022-08-21T02:35:54;4.93;;;2.17;;
71975;SDS011;60680;52.182;5.398;2022-08-21T02:38:24;3.63;;;1.90;;
71975;SDS011;60680;52.182;5.398;2022-08-21T02:40:56;9.30;;;2.42;;
71975;SDS011;60680;52.182;5.398;2022-08-21T02:43:24;4.17;;;1.70;;
71975;SDS011;60680;52.182;5.398;2022-08-21T02:45:52;6.50;;;2.58;;
71975;SDS011;60680;52.182;5.398;2022-08-21T02:48:23;5.93;;;2.58;;
71975;SDS011;60680;52.182;5.398;2022-08-21T02:50:58;6.20;;;2.60;;
71975;SDS011;60680;52.182;5.398;2022-08-21T02:53:28;4.88;;;2.30;;
71975;SDS011;60680;52.182;5.398;2022-08-21T02:55:56;5.37;;;2.30;;
71975;SDS011;60680;52.182;5.398;2022-08-21T02:58:26;5.88;;;2.13;;
71975;SDS011;60680;52.182;5.398;2022-08-21T03:00:57;4.97;;;2.45;;
71975;SDS011;60680;52.182;5.398;2022-08-21T03:03:24;6.32;;;2.35;;
71975;SDS011;60680;52.182;5.398;2022-08-21T03:05:53;6.25;;;2.55;;
71975;SDS011;60680;52.182;5.398;2022-08-21T03:08:20;4.93;;;2.20;;
71975;SDS011;60680;52.182;5.398;2022-08-21T03:10:53;8.07;;;2.67;;
71975;SDS011;60680;52.182;5.398;2022-08-21T03:13:19;7.47;;;3.22;;
71975;SDS011;60680;52.182;5.398;2022-08-21T03:15:47;5.93;;;2.42;;
71975;SDS011;60680;52.182;5.398;2022-08-21T03:18:15;7.80;;;2.47;;
71975;SDS011;60680;52.182;5.398;2022-08-21T03:20:42;6.33;;;2.50;;
71975;SDS011;60680;52.182;5.398;2022-08-21T03:23:11;6.10;;;2.38;;
71975;SDS011;60680;52.182;5.398;2022-08-21T03:25:41;4.50;;;2.20;;
71975;SDS011;60680;52.182;5.398;2022-08-21T03:28:11;7.35;;;2.45;;
71975;SDS011;60680;52.182;5.398;2022-08-21T03:30:43;4.63;;;2.25;;
71975;SDS011;60680;52.182;5.398;2022-08-21T03:33:11;3.90;;;2.10;;
71975;SDS011;60680;52.182;5.398;2022-08-21T03:35:41;6.15;;;1.70;;
71975;SDS011;60680;52.182;5.398;2022-08-21T03:38:09;5.63;;;2.53;;
71975;SDS011;60680;52.182;5.398;2022-08-21T03:40:36;7.40;;;2.20;;
71975;SDS011;60680;52.182;5.398;2022-08-21T03:43:02;4.75;;;2.15;;
71975;SDS011;60680;52.182;5.398;2022-08-21T03:45:29;3.73;;;2.03;;
71975;SDS011;60680;52.182;5.398;2022-08-21T03:47:59;5.53;;;2.35;;
71975;SDS011;60680;52.182;5.398;2022-08-21T03:50:29;7.32;;;2.47;;
71975;SDS011;60680;52.182;5.398;2022-08-21T03:53:00;6.90;;;2.63;;
71975;SDS011;60680;52.182;5.398;2022-08-21T03:55:26;4.40;;;2.15;;
71975;SDS011;60680;52.182;5.398;2022-08-21T03:57:53;8.47;;;2.43;;
71975;SDS011;60680;52.182;5.398;2022-08-21T04:00:20;5.88;;;2.63;;
71975;SDS011;60680;52.182;5.398;2022-08-21T04:02:46;4.63;;;2.20;;
71975;SDS011;60680;52.182;5.398;2022-08-21T04:05:13;4.63;;;2.58;;
71975;SDS011;60680;52.182;5.398;2022-08-21T04:07:53;6.07;;;2.55;;
71975;SDS011;60680;52.182;5.398;2022-08-21T04:10:22;5.97;;;2.10;;
71975;SDS011;60680;52.182;5.398;2022-08-21T04:12:51;6.47;;;2.63;;
71975;SDS011;60680;52.182;5.398;2022-08-21T04:15:20;7.40;;;2.72;;
71975;SDS011;60680;52.182;5.398;2022-08-21T04:17:47;5.65;;;2.35;;
71975;SDS011;60680;52.182;5.398;2022-08-21T04:20:15;6.25;;;2.80;;
71975;SDS011;60680;52.182;5.398;2022-08-21T04:22:43;7.20;;;2.40;;
71975;SDS011;60680;52.182;5.398;2022-08-21T04:25:11;7.88;;;3.13;;
71975;SDS011;60680;52.182;5.398;2022-08-21T04:27:38;8.50;;;2.83;;
71975;SDS011;60680;52.182;5.398;2022-08-21T04:30:06;4.97;;;2.67;;
71975;SDS011;60680;52.182;5.398;2022-08-21T04:32:35;5.95;;;2.88;;
71975;SDS011;60680;52.182;5.398;2022-08-21T04:35:05;6.17;;;2.93;;
71975;SDS011;60680;52.182;5.398;2022-08-21T04:37:34;3.70;;;2.25;;
71975;SDS011;60680;52.182;5.398;2022-08-21T04:40:07;4.93;;;2.53;;
71975;SDS011;60680;52.182;5.398;2022-08-21T04:45:20;5.15;;;2.72;;
71975;SDS011;60680;52.182;5.398;2022-08-21T04:47:49;7.33;;;3.07;;
71975;SDS011;60680;52.182;5.398;2022-08-21T04:50:18;7.97;;;2.83;;
71975;SDS011;60680;52.182;5.398;2022-08-21T04:52:47;6.18;;;2.75;;
71975;SDS011;60680;52.182;5.398;2022-08-21T04:55:14;8.20;;;3.35;;
71975;SDS011;60680;52.182;5.398;2022-08-21T04:57:44;8.02;;;3.35;;
71975;SDS011;60680;52.182;5.398;2022-08-21T05:00:14;4.63;;;3.20;;
71975;SDS011;60680;52.182;5.398;2022-08-21T05:02:44;6.47;;;3.55;;
71975;SDS011;60680;52.182;5.398;2022-08-21T05:05:13;8.27;;;3.83;;
71975;SDS011;60680;52.182;5.398;2022-08-21T05:07:41;5.60;;;2.80;;
71975;SDS011;60680;52.182;5.398;2022-08-21T05:10:10;6.45;;;3.83;;
71975;SDS011;60680;52.182;5.398;2022-08-21T05:12:40;5.40;;;3.37;;
71975;SDS011;60680;52.182;5.398;2022-08-21T05:15:09;5.18;;;3.28;;
71975;SDS011;60680;52.182;5.398;2022-08-21T05:17:39;8.38;;;3.55;;
71975;SDS011;60680;52.182;5.398;2022-08-21T05:20:18;7.10;;;3.83;;
71975;SDS011;60680;52.182;5.398;2022-08-21T05:22:45;7.55;;;3.40;;
71975;SDS011;60680;52.182;5.398;2022-08-21T05:25:12;7.47;;;3.33;;
71975;SDS011;60680;52.182;5.398;2022-08-21T05:27:38;6.88;;;3.28;;
71975;SDS011;60680;52.182;5.398;2022-08-21T05:30:08;9.57;;;3.13;;
71975;SDS011;60680;52.182;5.398;2022-08-21T05:32:36;9.18;;;3.85;;
71975;SDS011;60680;52.182;5.398;2022-08-21T05:35:06;6.97;;;3.35;;
71975;SDS011;60680;52.182;5.398;2022-08-21T05:37:37;8.37;;;3.57;;
71975;SDS011;60680;52.182;5.398;2022-08-21T05:40:04;10.35;;;3.53;;
71975;SDS011;60680;52.182;5.398;2022-08-21T05:42:48;6.32;;;3.10;;
71975;SDS011;60680;52.182;5.398;2022-08-21T05:45:20;10.25;;;3.35;;
71975;SDS011;60680;52.182;5.398;2022-08-21T05:48:42;7.47;;;3.22;;
71975;SDS011;60680;52.182;5.398;2022-08-21T05:51:06;7.37;;;2.80;;
71975;SDS011;60680;52.182;5.398;2022-08-21T05:53:35;7.65;;;3.42;;
71975;SDS011;60680;52.182;5.398;2022-08-21T05:56:02;9.80;;;2.90;;
71975;SDS011;60680;52.182;5.398;2022-08-21T05:58:30;4.05;;;2.55;;
71975;SDS011;60680;52.182;5.398;2022-08-21T06:00:59;9.15;;;2.95;;
71975;SDS011;60680;52.182;5.398;2022-08-21T06:03:28;8.20;;;2.67;;
71975;SDS011;60680;52.182;5.398;2022-08-21T06:05:56;10.10;;;2.90;;
71975;SDS011;60680;52.182;5.398;2022-08-21T06:08:24;8.07;;;2.85;;
71975;SDS011;60680;52.182;5.398;2022-08-21T06:10:51;9.15;;;2.95;;
71975;SDS011;60680;52.182;5.398;2022-08-21T06:13:20;4.78;;;2.47;;
71975;SDS011;60680;52.182;5.398;2022-08-21T06:15:48;8.10;;;2.77;;
71975;SDS011;60680;52.182;5.398;2022-08-21T06:18:15;9.10;;;2.60;;
71975;SDS011;60680;52.182;5.398;2022-08-21T06:20:42;7.57;;;2.70;;
71975;SDS011;60680;52.182;5.398;2022-08-21T06:23:09;8.57;;;2.70;;
71975;SDS011;60680;52.182;5.398;2022-08-21T06:25:35;7.70;;;2.63;;
71975;SDS011;60680;52.182;5.398;2022-08-21T06:28:06;6.03;;;2.67;;
71975;SDS011;60680;52.182;5.398;2022-08-21T06:30:34;6.65;;;2.95;;
71975;SDS011;60680;52.182;5.398;2022-08-21T06:33:03;9.50;;;2.83;;
71975;SDS011;60680;52.182;5.398;2022-08-21T06:35:29;8.32;;;2.63;;
71975;SDS011;60680;52.182;5.398;2022-08-21T06:37:56;9.18;;;3.13;;
71975;SDS011;60680;52.182;5.398;2022-08-21T06:40:24;10.07;;;3.20;;
71975;SDS011;60680;52.182;5.398;2022-08-21T06:42:55;8.82;;;2.78;;
71975;SDS011;60680;52.182;5.398;2022-08-21T06:45:21;6.57;;;2.72;;
71975;SDS011;60680;52.182;5.398;2022-08-21T06:47:48;11.45;;;2.90;;
71975;SDS011;60680;52.182;5.398;2022-08-21T06:50:14;10.02;;;3.20;;
71975;SDS011;60680;52.182;5.398;2022-08-21T06:52:41;10.73;;;3.03;;
71975;SDS011;60680;52.182;5.398;2022-08-21T06:55:09;7.65;;;2.38;;
71975;SDS011;60680;52.182;5.398;2022-08-21T06:57:36;7.30;;;3.20;;
71975;SDS011;60680;52.182;5.398;2022-08-21T07:00:04;8.93;;;3.20;;
71975;SDS011;60680;52.182;5.398;2022-08-21T07:02:31;8.82;;;2.70;;
71975;SDS011;60680;52.182;5.398;2022-08-21T07:04:59;13.87;;;2.93;;
71975;SDS011;60680;52.182;5.398;2022-08-21T07:07:25;7.28;;;2.70;;
71975;SDS011;60680;52.182;5.398;2022-08-21T07:09:52;8.68;;;2.90;;
71975;SDS011;60680;52.182;5.398;2022-08-21T07:12:18;7.35;;;3.08;;
71975;SDS011;60680;52.182;5.398;2022-08-21T07:14:45;9.55;;;2.40;;
71975;SDS011;60680;52.182;5.398;2022-08-21T07:17:12;10.10;;;3.17;;
71975;SDS011;60680;52.182;5.398;2022-08-21T07:19:38;8.00;;;2.60;;
71975;SDS011;60680;52.182;5.398;2022-08-21T07:22:05;10.77;;;3.00;;
71975;SDS011;60680;52.182;5.398;2022-08-21T07:24:31;7.40;;;2.50;;
71975;SDS011;60680;52.182;5.398;2022-08-21T07:26:57;7.60;;;2.65;;
71975;SDS011;60680;52.182;5.398;2022-08-21T07:29:24;9.70;;;2.60;;
71975;SDS011;60680;52.182;5.398;2022-08-21T07:31:50;8.30;;;3.08;;
71975;SDS011;60680;52.182;5.398;2022-08-21T07:34:17;8.77;;;2.72;;
71975;SDS011;60680;52.182;5.398;2022-08-21T07:36:43;8.55;;;2.63;;
71975;SDS011;60680;52.182;5.398;2022-08-21T07:39:11;8.25;;;2.45;;
71975;SDS011;60680;52.182;5.398;2022-08-21T07:41:37;8.23;;;3.13;;
71975;SDS011;60680;52.182;5.398;2022-08-21T07:44:04;9.13;;;2.35;;
71975;SDS011;60680;52.182;5.398;2022-08-21T07:46:31;7.28;;;2.38;;
71975;SDS011;60680;52.182;5.398;2022-08-21T07:48:58;5.53;;;2.38;;
71975;SDS011;60680;52.182;5.398;2022-08-21T07:51:25;10.60;;;2.75;;
71975;SDS011;60680;52.182;5.398;2022-08-21T07:53:54;4.70;;;2.20;;
71975;SDS011;60680;52.182;5.398;2022-08-21T07:56:22;7.50;;;2.20;;
71975;SDS011;60680;52.182;5.398;2022-08-21T07:58:49;5.68;;;1.92;;
71975;SDS011;60680;52.182;5.398;2022-08-21T08:01:15;9.52;;;2.25;;
71975;SDS011;60680;52.182;5.398;2022-08-21T08:03:42;7.60;;;1.90;;
71975;SDS011;60680;52.182;5.398;2022-08-21T08:06:09;11.03;;;2.40;;
71975;SDS011;60680;52.182;5.398;2022-08-21T08:08:38;8.27;;;2.55;;
71975;SDS011;60680;52.182;5.398;2022-08-21T08:11:07;7.10;;;2.30;;
71975;SDS011;60680;52.182;5.398;2022-08-21T08:13:39;10.02;;;2.22;;
71975;SDS011;60680;52.182;5.398;2022-08-21T08:16:06;8.48;;;2.50;;
71975;SDS011;60680;52.182;5.398;2022-08-21T08:18:33;12.83;;;2.30;;
71975;SDS011;60680;52.182;5.398;2022-08-21T08:21:00;9.35;;;1.90;;
71975;SDS011;60680;52.182;5.398;2022-08-21T08:23:27;6.85;;;2.10;;
71975;SDS011;60680;52.182;5.398;2022-08-21T08:25:53;7.03;;;1.80;;
71975;SDS011;60680;52.182;5.398;2022-08-21T08:28:20;8.05;;;1.75;;
71975;SDS011;60680;52.182;5.398;2022-08-21T08:30:48;5.33;;;1.90;;
71975;SDS011;60680;52.182;5.398;2022-08-21T08:33:16;6.03;;;1.90;;
71975;SDS011;60680;52.182;5.398;2022-08-21T08:35:44;7.18;;;1.60;;
71975;SDS011;60680;52.182;5.398;2022-08-21T08:38:13;5.28;;;1.95;;
71975;SDS011;60680;52.182;5.398;2022-08-21T08:40:49;7.25;;;2.00;;
71975;SDS011;60680;52.182;5.398;2022-08-21T08:43:21;6.80;;;1.77;;
71975;SDS011;60680;52.182;5.398;2022-08-21T08:45:48;6.22;;;2.00;;
71975;SDS011;60680;52.182;5.398;2022-08-21T08:48:31;9.23;;;1.83;;
71975;SDS011;60680;52.182;5.398;2022-08-21T08:51:00;6.60;;;1.60;;
71975;SDS011;60680;52.182;5.398;2022-08-21T08:53:34;6.55;;;1.75;;
71975;SDS011;60680;52.182;5.398;2022-08-21T08:56:11;6.70;;;1.73;;
71975;SDS011;60680;52.182;5.398;2022-08-21T08:58:39;5.85;;;1.70;;
71975;SDS011;60680;52.182;5.398;2022-08-21T09:01:12;7.57;;;2.30;;
71975;SDS011;60680;52.182;5.398;2022-08-21T09:03:44;7.65;;;2.53;;
71975;SDS011;60680;52.182;5.398;2022-08-21T09:06:22;6.28;;;1.90;;
71975;SDS011;60680;52.182;5.398;2022-08-21T09:23:30;6.03;;;1.70;;
71975;SDS011;60680;52.182;5.398;2022-08-21T09:26:22;5.35;;;2.20;;
71975;SDS011;60680;52.182;5.398;2022-08-21T09:28:51;7.43;;;1.83;;
71975;SDS011;60680;52.182;5.398;2022-08-21T09:31:28;6.78;;;1.42;;
71975;SDS011;60680;52.182;5.398;2022-08-21T09:34:00;6.85;;;1.60;;
71975;SDS011;60680;52.182;5.398;2022-08-21T09:36:42;6.80;;;1.73;;
71975;SDS011;60680;52.182;5.398;2022-08-21T09:39:22;5.30;;;1.77;;
71975;SDS011;60680;52.182;5.398;2022-08-21T09:41:55;8.13;;;1.75;;
71975;SDS011;60680;52.182;5.398;2022-08-21T09:44:28;7.25;;;1.60;;
71975;SDS011;60680;52.182;5.398;2022-08-21T09:46:56;3.90;;;1.45;;
71975;SDS011;60680;52.182;5.398;2022-08-21T09:49:30;8.23;;;1.60;;
71975;SDS011;60680;52.182;5.398;2022-08-21T09:51:58;5.35;;;1.48;;
71975;SDS011;60680;52.182;5.398;2022-08-21T09:54:29;6.15;;;1.80;;
71975;SDS011;60680;52.182;5.398;2022-08-21T09:56:58;4.28;;;1.40;;
71975;SDS011;60680;52.182;5.398;2022-08-21T09:59:45;9.07;;;1.40;;
71975;SDS011;60680;52.182;5.398;2022-08-21T10:02:21;7.40;;;1.27;;
71975;SDS011;60680;52.182;5.398;2022-08-21T10:05:02;5.32;;;1.40;;
71975;SDS011;60680;52.182;5.398;2022-08-21T10:07:30;9.20;;;1.48;;
71975;SDS011;60680;52.182;5.398;2022-08-21T10:09:58;6.10;;;1.65;;
71975;SDS011;60680;52.182;5.398;2022-08-21T10:12:28;6.53;;;1.58;;
71975;SDS011;60680;52.182;5.398;2022-08-21T10:15:12;5.07;;;1.07;;
71975;SDS011;60680;52.182;5.398;2022-08-21T10:18:04;8.95;;;1.88;;
71975;SDS011;60680;52.182;5.398;2022-08-21T10:20:40;8.07;;;1.77;;
71975;SDS011;60680;52.182;5.398;2022-08-21T10:25:45;6.47;;;1.60;;
71975;SDS011;60680;52.182;5.398;2022-08-21T10:28:47;7.53;;;1.10;;
71975;SDS011;60680;52.182;5.398;2022-08-21T10:42:36;5.43;;;1.40;;
71975;SDS011;60680;52.182;5.398;2022-08-21T10:48:24;4.28;;;1.08;;
71975;SDS011;60680;52.182;5.398;2022-08-21T10:54:22;5.22;;;1.20;;
71975;SDS011;60680;52.182;5.398;2022-08-21T10:56:32;4.37;;;1.40;;
71975;SDS011;60680;52.182;5.398;2022-08-21T10:59:23;7.72;;;1.33;;
71975;SDS011;60680;52.182;5.398;2022-08-21T11:04:36;3.35;;;1.40;;
71975;SDS011;60680;52.182;5.398;2022-08-21T11:07:29;5.70;;;1.20;;
71975;SDS011;60680;52.182;5.398;2022-08-21T11:10:05;5.00;;;1.73;;
71975;SDS011;60680;52.182;5.398;2022-08-21T11:12:48;5.28;;;1.30;;
71975;SDS011;60680;52.182;5.398;2022-08-21T11:15:30;2.33;;;0.90;;
71975;SDS011;60680;52.182;5.398;2022-08-21T11:18:09;5.47;;;1.20;;
71975;SDS011;60680;52.182;5.398;2022-08-21T11:26:22;4.75;;;1.17;;
71975;SDS011;60680;52.182;5.398;2022-08-21T11:28:58;6.00;;;1.45;;
71975;SDS011;60680;52.182;5.398;2022-08-21T11:31:39;5.30;;;1.70;;
71975;SDS011;60680;52.182;5.398;2022-08-21T11:34:21;7.13;;;1.90;;
71975;SDS011;60680;52.182;5.398;2022-08-21T11:37:22;3.17;;;1.17;;
71975;SDS011;60680;52.182;5.398;2022-08-21T11:40:09;3.78;;;1.45;;
71975;SDS011;60680;52.182;5.398;2022-08-21T11:42:53;4.90;;;1.30;;
71975;SDS011;60680;52.182;5.398;2022-08-21T11:50:48;6.37;;;2.23;;
71975;SDS011;60680;52.182;5.398;2022-08-21T11:53:28;5.07;;;1.90;;
71975;SDS011;60680;52.182;5.398;2022-08-21T11:56:02;5.32;;;1.90;;
71975;SDS011;60680;52.182;5.398;2022-08-21T11:58:39;6.65;;;2.40;;
71975;SDS011;60680;52.182;5.398;2022-08-21T12:01:08;6.15;;;2.13;;
71975;SDS011;60680;52.182;5.398;2022-08-21T12:03:40;6.33;;;2.00;;
71975;SDS011;60680;52.182;5.398;2022-08-21T12:06:10;5.43;;;2.00;;
71975;SDS011;60680;52.182;5.398;2022-08-21T12:08:56;4.82;;;2.05;;
71975;SDS011;60680;52.182;5.398;2022-08-21T12:11:25;8.13;;;2.47;;
71975;SDS011;60680;52.182;5.398;2022-08-21T12:16:33;4.97;;;1.87;;
71975;SDS011;60680;52.182;5.398;2022-08-21T12:24:39;6.38;;;2.10;;
71975;SDS011;60680;52.182;5.398;2022-08-21T12:29:50;4.07;;;1.77;;
71975;SDS011;60680;52.182;5.398;2022-08-21T12:32:24;4.90;;;2.10;;
71975;SDS011;60680;52.182;5.398;2022-08-21T12:35:06;7.05;;;2.40;;
71975;SDS011;60680;52.182;5.398;2022-08-21T12:37:56;5.40;;;2.55;;
71975;SDS011;60680;52.182;5.398;2022-08-21T12:41:17;5.35;;;2.00;;
71975;SDS011;60680;52.182;5.398;2022-08-21T12:43:46;7.07;;;2.10;;
71975;SDS011;60680;52.182;5.398;2022-08-21T12:46:18;7.03;;;2.00;;
71975;SDS011;60680;52.182;5.398;2022-08-21T12:48:58;4.40;;;2.15;;
71975;SDS011;60680;52.182;5.398;2022-08-21T12:51:42;5.00;;;1.90;;
71975;SDS011;60680;52.182;5.398;2022-08-21T12:54:21;3.22;;;1.60;;
71975;SDS011;60680;52.182;5.398;2022-08-21T12:56:55;4.80;;;1.83;;
71975;SDS011;60680;52.182;5.398;2022-08-21T12:59:30;6.03;;;1.60;;
71975;SDS011;60680;52.182;5.398;2022-08-21T13:01:58;5.80;;;2.00;;
71975;SDS011;60680;52.182;5.398;2022-08-21T13:04:35;3.83;;;1.80;;
71975;SDS011;60680;52.182;5.398;2022-08-21T13:07:09;7.75;;;1.75;;
71975;SDS011;60680;52.182;5.398;2022-08-21T13:09:42;3.60;;;1.43;;
71975;SDS011;60680;52.182;5.398;2022-08-21T13:12:17;2.10;;;1.30;;
71975;SDS011;60680;52.182;5.398;2022-08-21T13:14:45;4.82;;;1.75;;
71975;SDS011;60680;52.182;5.398;2022-08-21T13:17:13;3.55;;;1.67;;
71975;SDS011;60680;52.182;5.398;2022-08-21T13:19:55;7.45;;;1.70;;
71975;SDS011;60680;52.182;5.398;2022-08-21T13:22:26;3.43;;;1.30;;
71975;SDS011;60680;52.182;5.398;2022-08-21T13:25:00;3.90;;;1.50;;
71975;SDS011;60680;52.182;5.398;2022-08-21T13:27:32;6.70;;;1.90;;
71975;SDS011;60680;52.182;5.398;2022-08-21T13:32:47;3.25;;;1.40;;
71975;SDS011;60680;52.182;5.398;2022-08-21T13:35:20;4.17;;;1.30;;
71975;SDS011;60680;52.182;5.398;2022-08-21T13:37:49;6.78;;;2.08;;
71975;SDS011;60680;52.182;5.398;2022-08-21T13:40:25;4.45;;;1.65;;
71975;SDS011;60680;52.182;5.398;2022-08-21T13:43:10;4.47;;;1.40;;
71975;SDS011;60680;52.182;5.398;2022-08-21T13:45:48;5.28;;;1.60;;
71975;SDS011;60680;52.182;5.398;2022-08-21T13:48:17;5.97;;;1.87;;
71975;SDS011;60680;52.182;5.398;2022-08-21T13:50:45;5.93;;;1.63;;
71975;SDS011;60680;52.182;5.398;2022-08-21T13:53:29;6.45;;;1.80;;
71975;SDS011;60680;52.182;5.398;2022-08-21T13:55:58;4.45;;;1.40;;
71975;SDS011;60680;52.182;5.398;2022-08-21T13:58:30;5.70;;;1.50;;
71975;SDS011;60680;52.182;5.398;2022-08-21T14:00:59;3.90;;;1.97;;
71975;SDS011;60680;52.182;5.398;2022-08-21T14:06:11;4.65;;;1.70;;
71975;SDS011;60680;52.182;5.398;2022-08-21T14:08:39;5.00;;;1.80;;
71975;SDS011;60680;52.182;5.398;2022-08-21T14:11:09;4.40;;;1.42;;
71975;SDS011;60680;52.182;5.398;2022-08-21T14:16:47;2.47;;;1.48;;
71975;SDS011;60680;52.182;5.398;2022-08-21T14:19:22;3.00;;;1.33;;
71975;SDS011;60680;52.182;5.398;2022-08-21T14:21:54;6.10;;;1.38;;
71975;SDS011;60680;52.182;5.398;2022-08-21T14:26:51;4.10;;;1.40;;
71975;SDS011;60680;52.182;5.398;2022-08-21T14:29:21;4.05;;;1.55;;
71975;SDS011;60680;52.182;5.398;2022-08-21T14:31:51;4.40;;;1.13;;
71975;SDS011;60680;52.182;5.398;2022-08-21T14:34:22;5.22;;;1.75;;
71975;SDS011;60680;52.182;5.398;2022-08-21T14:36:51;6.45;;;1.70;;
71975;SDS011;60680;52.182;5.398;2022-08-21T14:39:17;2.87;;;1.40;;
71975;SDS011;60680;52.182;5.398;2022-08-21T14:41:44;5.15;;;1.80;;
71975;SDS011;60680;52.182;5.398;2022-08-21T14:44:14;5.43;;;1.63;;
71975;SDS011;60680;52.182;5.398;2022-08-21T14:46:43;4.32;;;1.20;;
71975;SDS011;60680;52.182;5.398;2022-08-21T14:49:22;4.40;;;1.30;;
71975;SDS011;60680;52.182;5.398;2022-08-21T14:51:52;3.30;;;1.03;;
71975;SDS011;60680;52.182;5.398;2022-08-21T14:54:24;4.03;;;1.20;;
71975;SDS011;60680;52.182;5.398;2022-08-21T14:57:01;4.25;;;1.42;;
71975;SDS011;60680;52.182;5.398;2022-08-21T14:59:35;3.28;;;1.40;;
71975;SDS011;60680;52.182;5.398;2022-08-21T15:02:02;2.90;;;1.17;;
71975;SDS011;60680;52.182;5.398;2022-08-21T15:04:32;4.10;;;1.00;;
71975;SDS011;60680;52.182;5.398;2022-08-21T15:07:00;5.20;;;1.30;;
71975;SDS011;60680;52.182;5.398;2022-08-21T15:09:27;4.55;;;1.30;;
71975;SDS011;60680;52.182;5.398;2022-08-21T15:11:55;6.15;;;1.20;;
71975;SDS011;60680;52.182;5.398;2022-08-21T15:14:24;5.22;;;1.20;;
71975;SDS011;60680;52.182;5.398;2022-08-21T15:16:52;5.97;;;1.23;;
71975;SDS011;60680;52.182;5.398;2022-08-21T15:19:19;5.28;;;1.35;;
71975;SDS011;60680;52.182;5.398;2022-08-21T15:21:46;4.60;;;1.60;;
71975;SDS011;60680;52.182;5.398;2022-08-21T15:24:12;4.65;;;1.25;;
71975;SDS011;60680;52.182;5.398;2022-08-21T15:26:39;3.95;;;1.08;;
71975;SDS011;60680;52.182;5.398;2022-08-21T15:29:06;4.67;;;1.10;;
71975;SDS011;60680;52.182;5.398;2022-08-21T15:31:34;4.95;;;1.20;;
71975;SDS011;60680;52.182;5.398;2022-08-21T15:34:01;3.72;;;1.20;;
71975;SDS011;60680;52.182;5.398;2022-08-21T15:36:28;4.65;;;1.20;;
71975;SDS011;60680;52.182;5.398;2022-08-21T15:38:54;4.28;;;0.95;;
71975;SDS011;60680;52.182;5.398;2022-08-21T15:41:21;3.53;;;1.10;;
71975;SDS011;60680;52.182;5.398;2022-08-21T15:43:48;5.78;;;1.40;;
71975;SDS011;60680;52.182;5.398;2022-08-21T15:46:18;3.85;;;1.20;;
71975;SDS011;60680;52.182;5.398;2022-08-21T15:48:46;2.67;;;0.95;;
71975;SDS011;60680;52.182;5.398;2022-08-21T15:51:14;2.38;;;0.98;;
71975;SDS011;60680;52.182;5.398;2022-08-21T15:53:42;6.37;;;1.20;;
71975;SDS011;60680;52.182;5.398;2022-08-21T15:56:55;4.28;;;0.90;;
71975;SDS011;60680;52.182;5.398;2022-08-21T15:59:13;3.17;;;0.82;;
71975;SDS011;60680;52.182;5.398;2022-08-21T16:01:43;3.03;;;0.90;;
71975;SDS011;60680;52.182;5.398;2022-08-21T16:04:20;5.63;;;1.00;;
71975;SDS011;60680;52.182;5.398;2022-08-21T16:06:52;5.67;;;1.03;;
71975;SDS011;60680;52.182;5.398;2022-08-21T16:09:27;3.25;;;0.90;;
71975;SDS011;60680;52.182;5.398;2022-08-21T16:11:53;3.95;;;1.02;;
71975;SDS011;60680;52.182;5.398;2022-08-21T16:14:20;3.55;;;0.80;;
71975;SDS011;60680;52.182;5.398;2022-08-21T16:16:46;3.13;;;0.80;;
71975;SDS011;60680;52.182;5.398;2022-08-21T16:19:13;4.60;;;1.93;;
71975;SDS011;60680;52.182;5.398;2022-08-21T16:21:40;4.65;;;1.15;;
71975;SDS011;60680;52.182;5.398;2022-08-21T16:24:07;4.10;;;1.13;;